Time;durP1;ratioP1;P1;durP2;ratioP2;P2;SDS_P1;SDS_P2;PMS_P1;PMS_P2;Temp;Humidity;BMP_temperature;BMP_pressure;BME280_temperature;BME280_humidity;BME280_pressure;Samples;Min_cycle;Max_cycle;Signal;HPM_P1;HPM_P2
2021/11/01 00:02:05;;;;;;;23.92;6.00;;;12.60;99.90;;;12.57;85.06;99500.13;5053673;28;20048;-76
2021/11/01 00:04:34;;;;;;;22.17;6.10;;;12.60;99.90;;;12.74;85.20;99549.09;5054265;28;20045;-76
2021/11/01 00:07:02;;;;;;;18.27;5.65;;;12.60;99.90;;;12.74;85.04;99535.84;5053570;28;20230;-77
2021/11/01 00:09:30;;;;;;;25.42;6.57;;;12.60;99.90;;;12.57;84.79;99521.34;5053661;28;20091;-76
2021/11/01 00:12:00;;;;;;;23.02;5.80;;;12.60;99.90;;;12.74;84.92;99543.78;5054131;28;20534;-76
2021/11/01 00:14:29;;;;;;;25.07;6.17;;;12.60;99.90;;;12.58;84.69;99514.28;5052772;28;20107;-76
2021/11/01 00:16:58;;;;;;;24.67;6.32;;;12.50;99.90;;;12.70;84.37;99543.88;5053709;28;20055;-77
2021/11/01 00:19:28;;;;;;;22.42;5.60;;;12.60;99.90;;;12.55;84.03;99530.28;5086487;28;20569;-76
2021/11/01 00:21:56;;;;;;;23.35;6.22;;;12.50;99.90;;;12.63;84.19;99533.53;5053603;28;20045;-77
2021/11/01 00:24:25;;;;;;;19.90;5.70;;;12.40;99.90;;;11.91;83.98;99419.34;5053355;28;20056;-76
2021/11/01 00:26:53;;;;;;;18.75;6.00;;;12.40;99.90;;;12.55;83.79;99530.28;5069056;28;20140;-77
2021/11/01 00:29:23;;;;;;;25.80;6.38;;;12.40;99.90;;;12.52;83.69;99514.47;5053439;28;20041;-77
2021/11/01 00:31:52;;;;;;;22.93;6.13;;;12.50;99.90;;;12.62;83.30;99537.09;5053546;28;20037;-76
2021/11/01 00:34:21;;;;;;;21.10;6.63;;;12.50;99.90;;;12.29;82.90;99475.47;5053889;28;20280;-76
2021/11/01 00:36:49;;;;;;;15.68;5.10;;;12.40;99.90;;;12.42;82.67;99513.06;5052290;28;20049;-76
2021/11/01 00:39:18;;;;;;;18.90;5.97;;;12.40;99.90;;;12.53;82.58;99526.81;5053219;28;20037;-77
2021/11/01 00:41:46;;;;;;;19.27;5.70;;;12.30;99.90;;;12.49;82.25;99546.38;5052640;28;20487;-76
2021/11/01 00:44:15;;;;;;;15.82;5.45;;;12.30;99.90;;;11.40;81.91;99338.00;5068934;28;20048;-76
2021/11/01 00:46:45;;;;;;;16.52;5.03;;;12.30;99.90;;;12.35;81.48;99501.78;5053750;28;20041;-76
2021/11/01 00:49:14;;;;;;;16.88;5.60;;;12.30;99.90;;;12.38;81.63;99503.47;5053207;28;20045;-77
2021/11/01 00:51:47;;;;;;;17.13;5.97;;;12.30;99.90;;;12.38;81.53;99522.03;5053087;28;20045;-76
2021/11/01 00:54:15;;;;;;;16.20;4.90;;;12.20;99.90;;;12.41;81.73;99498.91;5053556;28;20045;-77
2021/11/01 00:56:43;;;;;;;15.70;4.88;;;12.30;99.90;;;12.44;81.73;99511.22;5053091;28;20501;-76
2021/11/01 00:59:12;;;;;;;17.77;5.63;;;12.30;99.90;;;12.42;81.29;99521.88;5053305;28;20555;-76
2021/11/01 01:01:41;;;;;;;17.73;5.07;;;12.30;99.90;;;12.37;81.56;99520.28;5068803;28;20040;-77
2021/11/01 01:04:11;;;;;;;18.35;5.25;;;12.20;99.90;;;12.06;81.37;99456.81;5053194;28;20075;-77
2021/11/01 01:06:40;;;;;;;18.30;5.10;;;12.20;99.90;;;12.06;81.40;99434.75;5055612;28;20107;-76
2021/11/01 01:09:08;;;;;;;13.18;5.13;;;12.20;99.90;;;12.27;81.56;99498.50;5057159;28;20049;-76
2021/11/01 01:11:37;;;;;;;17.98;5.80;;;12.20;99.90;;;12.21;81.47;99463.41;5056959;28;20048;-76
2021/11/01 01:14:06;;;;;;;21.25;5.97;;;12.20;99.90;;;12.27;81.60;99485.25;5057195;28;20471;-76
2021/11/01 01:16:42;;;;;;;16.85;6.10;;;12.20;99.90;;;12.41;81.38;99496.25;5057166;28;20088;-76
2021/11/01 01:19:19;;;;;;;18.48;5.30;;;12.20;99.90;;;12.24;81.58;99481.84;5056899;28;20076;-76
2021/11/01 01:24:34;;;;;;;20.20;5.95;;;12.20;99.90;;;12.20;81.68;99465.19;5056807;28;20049;-76
2021/11/01 01:27:02;;;;;;;16.75;5.13;;;12.20;99.90;;;12.26;81.54;99469.41;5056646;28;20041;-76
2021/11/01 01:29:31;;;;;;;17.60;5.70;;;12.20;99.90;;;12.31;81.74;99480.75;5056954;28;20037;-76
2021/11/01 01:31:59;;;;;;;16.40;5.28;;;12.20;99.90;;;12.31;81.66;99470.13;5056552;28;20076;-76
2021/11/01 01:34:29;;;;;;;20.95;5.57;;;12.20;99.90;;;12.35;81.88;99485.03;5056579;28;20033;-76
2021/11/01 01:37:01;;;;;;;21.17;5.70;;;12.20;99.90;;;12.26;81.58;99464.09;5056430;28;20053;-76
2021/11/01 01:39:29;;;;;;;17.83;4.65;;;12.20;99.90;;;12.25;81.76;99468.53;5056536;28;20301;-76
2021/11/01 01:41:59;;;;;;;15.55;4.90;;;12.20;99.90;;;12.26;82.13;99456.16;5056320;28;20068;-76
2021/11/01 01:44:28;;;;;;;18.85;5.78;;;12.10;99.90;;;12.20;82.07;99465.19;5056182;28;20064;-67
2021/11/01 01:46:56;;;;;;;14.82;5.68;;;12.10;99.90;;;12.22;82.06;99452.75;5056265;28;20124;-66
2021/11/01 01:49:25;;;;;;;24.00;5.88;;;12.10;99.90;;;12.24;82.21;99458.84;5071931;28;20095;-66
2021/11/01 01:51:54;;;;;;;16.63;5.60;;;12.10;99.90;;;12.13;81.97;99461.00;5056220;28;20533;-66
2021/11/01 01:54:24;;;;;;;14.65;5.57;;;12.00;99.90;;;12.22;82.07;99452.75;5056071;28;20049;-66
2021/11/01 01:56:53;;;;;;;14.03;5.27;;;12.00;99.90;;;12.24;81.95;99448.25;5056197;28;20083;-66
2021/11/01 01:59:21;;;;;;;14.43;5.40;;;12.10;99.90;;;12.15;81.92;99437.09;5056179;28;20106;-66
2021/11/01 02:01:51;;;;;;;15.02;5.55;;;12.00;99.90;;;12.10;82.15;99445.19;5056108;28;20549;-66
2021/11/01 02:04:23;;;;;;;12.50;5.13;;;11.90;99.90;;;12.05;82.46;99449.78;5056105;28;20441;-66
2021/11/01 02:07:13;;;;;;;20.50;5.50;;;11.90;99.90;;;12.00;82.57;99461.47;5055951;28;20087;-66
2021/11/01 02:09:51;;;;;;;14.07;4.97;;;11.90;99.90;;;12.07;82.33;99461.22;5056235;28;20045;-66
2021/11/01 02:12:24;;;;;;;15.73;4.55;;;11.90;99.90;;;12.00;82.40;99454.34;5055904;28;20045;-66
2021/11/01 02:14:58;;;;;;;15.88;4.97;;;11.90;99.90;;;12.08;82.30;99459.44;5055901;28;20041;-66
2021/11/01 02:17:31;;;;;;;17.95;4.65;;;11.90;99.90;;;12.11;82.39;99465.50;5055776;28;20049;-66
2021/11/01 02:20:08;;;;;;;13.35;4.93;;;11.90;99.90;;;12.11;82.16;99461.97;5055762;28;20111;-66
2021/11/01 02:22:52;;;;;;;17.10;5.13;;;11.90;99.90;;;12.16;81.92;99452.06;5055773;28;20073;-66
2021/11/01 02:25:40;;;;;;;13.60;5.38;;;12.00;99.90;;;12.07;82.25;99455.03;5054452;28;20487;-67
2021/11/01 02:28:12;;;;;;;16.50;5.32;;;11.90;99.90;;;11.98;82.18;99456.19;5055760;28;20091;-66
2021/11/01 02:30:41;;;;;;;14.27;5.32;;;11.90;99.90;;;11.92;82.22;99437.88;5055870;28;20049;-66
2021/11/01 02:33:11;;;;;;;14.18;5.20;;;11.90;99.90;;;12.06;81.91;99469.22;5055752;28;20094;-66
2021/11/01 02:35:40;;;;;;;18.83;5.47;;;11.90;99.90;;;12.06;82.15;99471.88;5055519;28;20045;-66
2021/11/01 02:38:13;;;;;;;14.82;4.90;;;11.90;99.90;;;12.06;82.03;99461.28;5055685;28;20037;-66
2021/11/01 02:40:44;;;;;;;13.48;4.93;;;11.90;99.90;;;11.92;82.20;99443.16;5055412;28;20107;-66
2021/11/01 02:43:14;;;;;;;16.67;5.18;;;11.90;99.90;;;11.57;82.33;99399.25;5055331;28;20445;-66
2021/11/01 02:45:42;;;;;;;16.55;4.82;;;11.80;99.90;;;12.01;82.54;99463.19;5055300;28;20140;-66
2021/11/01 02:48:11;;;;;;;16.35;5.15;;;11.80;99.90;;;12.03;82.51;99474.59;5055393;28;20072;-66
2021/11/01 02:50:40;;;;;;;16.40;6.05;;;11.80;99.90;;;12.01;82.27;99468.47;5055187;28;20037;-65
2021/11/01 02:53:09;;;;;;;15.07;5.60;;;11.80;99.90;;;12.01;82.22;99472.00;5055291;28;20045;-66
2021/11/01 02:55:38;;;;;;;15.35;4.72;;;11.90;99.90;;;11.83;82.41;99453.19;5055070;28;20033;-66
2021/11/01 02:58:08;;;;;;;16.17;5.25;;;11.90;99.90;;;12.00;82.29;99472.91;5054964;28;20521;-66
2021/11/01 03:00:36;;;;;;;15.75;5.32;;;11.80;99.90;;;11.99;82.65;99503.00;5055011;28;20051;-66
2021/11/01 03:03:06;;;;;;;20.27;5.00;;;11.80;99.90;;;11.90;82.69;99483.88;5054912;28;20047;-65
2021/11/01 03:05:37;;;;;;;17.20;5.95;;;11.80;99.90;;;12.03;82.57;99485.19;5055172;28;20392;-65
2021/11/01 03:08:06;;;;;;;17.45;5.05;;;11.80;99.90;;;12.05;82.24;99473.63;5055153;28;20037;-66
2021/11/01 03:13:38;;;;;;;24.38;6.07;;;11.90;99.90;;;11.94;82.08;99472.25;5760155;23;20052;-75
2021/11/01 03:16:08;;;;;;;12.85;6.00;;;11.90;99.90;;;12.02;82.40;99480.84;4880361;29;20479;-66
2021/11/01 03:18:53;;;;;;;15.43;5.75;;;11.90;99.90;;;12.07;82.18;99478.88;4881223;29;20055;-65
2021/11/01 03:21:24;;;;;;;14.30;5.60;;;11.90;99.90;;;12.14;82.04;99485.72;4880170;29;20061;-66
2021/11/01 03:23:54;;;;;;;14.48;6.00;;;11.90;99.90;;;12.05;82.08;99471.00;4880831;29;20078;-65
2021/11/01 03:26:25;;;;;;;12.17;5.87;;;11.90;99.90;;;12.05;82.67;99473.63;4881389;29;20144;-65
2021/11/01 03:29:02;;;;;;;17.08;6.65;;;11.90;99.90;;;12.13;82.32;99470.75;4880218;29;20348;-65
2021/11/01 03:31:32;;;;;;;20.20;6.25;;;11.90;99.90;;;12.04;82.50;99469.25;4880760;29;20101;-65
2021/11/01 03:34:03;;;;;;;10.40;5.35;;;11.90;99.90;;;12.06;82.64;99470.06;4880741;29;20124;-66
2021/11/01 03:36:33;;;;;;;14.05;5.75;;;11.90;99.90;;;12.07;82.45;99469.16;4881206;29;20057;-66
2021/11/01 03:39:04;;;;;;;16.80;5.20;;;11.90;99.90;;;11.97;82.50;99462.41;4881117;29;20041;-66
2021/11/01 03:41:33;;;;;;;22.63;6.18;;;11.80;99.90;;;11.83;82.79;99458.50;4880549;29;20088;-66
2021/11/01 03:44:06;;;;;;;20.40;5.82;;;11.80;99.90;;;11.94;83.10;99461.66;4880627;29;20405;-65
2021/11/01 03:46:40;;;;;;;16.70;5.30;;;11.80;99.90;;;11.92;82.98;99453.78;4880483;29;20053;-66
2021/11/01 03:49:10;;;;;;;16.23;5.93;;;11.80;99.90;;;11.95;83.16;99440.41;4895036;29;20105;-65
2021/11/01 03:51:45;;;;;;;18.13;5.72;;;11.80;99.90;;;11.99;83.52;99459.72;4880434;29;20049;-66
2021/11/01 03:54:16;;;;;;;13.40;5.20;;;11.80;99.90;;;11.94;83.42;99457.25;4880394;29;20084;-65
2021/11/01 03:56:46;;;;;;;15.05;5.28;;;11.80;99.90;;;11.98;83.40;99456.19;4880268;29;20097;-65
2021/11/01 03:59:16;;;;;;;;;;;11.80;99.90;;;11.25;83.26;99330.56;4880882;29;20060;-65
2021/11/01 04:01:45;;;;;;;16.88;4.97;;;11.80;99.90;;;11.95;83.44;99447.47;4880209;29;19923;-65
2021/11/01 04:04:16;;;;;;;17.50;5.55;;;11.80;99.90;;;12.02;83.46;99451.69;4880142;29;20056;-65
2021/11/01 04:06:45;;;;;;;16.20;4.80;;;11.80;99.90;;;11.92;83.59;99442.28;4894762;29;20521;-65
2021/11/01 04:09:17;;;;;;;17.70;5.45;;;11.80;99.90;;;11.91;83.20;99440.53;4879930;29;20582;-65
2021/11/01 04:11:50;;;;;;;14.70;4.90;;;11.80;99.90;;;11.94;83.12;99446.63;4880060;29;20138;-65
2021/11/01 04:14:22;;;;;;;13.20;5.20;;;11.80;99.90;;;11.92;83.39;99429.06;4880266;29;20057;-65
2021/11/01 04:16:58;;;;;;;15.02;5.82;;;11.80;99.90;;;11.98;83.29;99455.34;4879971;29;20105;-65
2021/11/01 04:19:34;;;;;;;18.45;5.53;;;11.80;99.90;;;11.95;83.21;99447.47;4880389;29;20119;-65
2021/11/01 04:22:04;;;;;;;13.73;4.90;;;11.80;99.90;;;11.97;83.27;99457.13;4894503;29;20057;-65
2021/11/01 04:24:34;;;;;;;20.30;6.10;;;11.80;99.90;;;12.06;83.34;99435.59;4879791;29;20558;-65
2021/11/01 04:27:05;;;;;;;26.20;6.15;;;11.90;99.90;;;12.01;83.41;99423.44;4880010;29;20049;-65
2021/11/01 04:29:35;;;;;;;15.27;5.43;;;11.90;99.90;;;11.94;83.08;99448.41;4879619;29;20100;-65
2021/11/01 04:32:17;;;;;;;22.83;5.17;;;11.80;99.90;;;11.94;82.93;99462.53;4879987;29;20049;-65
2021/11/01 04:34:49;;;;;;;12.95;5.18;;;11.80;99.90;;;11.95;83.16;99452.78;4879736;29;20045;-65
2021/11/01 04:37:18;;;;;;;16.45;5.28;;;11.80;99.90;;;11.86;83.08;99446.03;4879690;29;20045;-65
2021/11/01 04:39:59;;;;;;;15.13;5.32;;;11.70;99.90;;;11.87;83.03;99460.97;4879097;29;20667;-65
2021/11/01 04:43:01;;;;;;;15.18;5.15;;;11.70;99.90;;;11.88;83.21;99452.13;4879529;29;20053;-65
2021/11/01 04:53:50;;;;;;;12.70;5.22;;;11.70;99.90;;;11.73;82.87;99423.47;4879532;29;20048;-65
2021/11/01 04:56:23;;;;;;;16.73;5.68;;;11.70;99.90;;;11.77;83.18;99451.59;4879495;29;20049;-65
2021/11/01 04:58:53;;;;;;;14.38;5.40;;;11.70;99.90;;;11.79;83.05;99450.63;4879478;29;20053;-65
2021/11/01 05:01:29;;;;;;;16.85;5.07;;;11.70;99.90;;;11.78;83.32;99450.69;4879595;29;20044;-66
2021/11/01 05:04:02;;;;;;;13.48;5.13;;;11.60;99.90;;;11.78;83.26;99466.59;4879849;29;20049;-64
2021/11/01 05:06:31;;;;;;;17.45;5.85;;;11.60;99.90;;;11.80;83.31;99448.84;4879376;29;20117;-65
2021/11/01 05:09:05;;;;;;;19.33;5.70;;;11.60;99.90;;;11.76;83.64;99464.00;4879227;29;20127;-66
2021/11/01 05:11:38;;;;;;;16.48;5.38;;;11.60;99.90;;;11.72;83.58;99461.47;4879591;29;20081;-64
2021/11/01 05:14:11;;;;;;;12.52;4.82;;;11.60;99.90;;;11.71;83.46;99475.66;4878074;29;20077;-66
2021/11/01 05:16:50;;;;;;;22.88;5.82;;;11.60;99.90;;;11.68;83.84;99487.19;4879344;29;20101;-67
2021/11/01 05:19:23;;;;;;;17.30;5.20;;;11.60;99.90;;;11.68;84.06;99481.91;4879617;29;20048;-66
2021/11/01 05:21:59;;;;;;;17.05;5.20;;;11.50;99.90;;;11.59;84.17;99482.13;4879269;29;20286;-68
2021/11/01 05:24:33;;;;;;;16.17;6.05;;;11.50;99.90;;;11.63;84.42;99472.34;4879147;29;20049;-67
2021/11/01 05:27:21;;;;;;;13.18;5.95;;;11.50;99.90;;;11.45;84.49;99479.06;4879222;29;20092;-68
2021/11/01 05:29:52;;;;;;;16.63;5.65;;;11.40;99.90;;;11.51;84.74;99510.66;4879516;29;20045;-67
2021/11/01 05:32:24;;;;;;;;;;;11.40;99.90;;;11.51;84.71;99486.81;4879564;29;20080;-67
2021/11/01 05:34:52;;;;;;;19.92;5.38;;;11.40;99.90;;;11.45;84.69;99489.66;4879177;29;19927;-67
2021/11/01 05:37:21;;;;;;;20.77;5.85;;;11.30;99.90;;;11.49;84.57;99501.88;4879315;29;20542;-67
2021/11/01 05:39:50;;;;;;;16.60;5.70;;;11.30;99.90;;;11.42;84.95;99502.13;4879580;29;20049;-67
2021/11/01 05:42:19;;;;;;;21.73;5.45;;;11.30;99.90;;;11.48;85.06;99486.91;4878971;29;20095;-68
2021/11/01 05:44:47;;;;;;;14.57;5.15;;;11.30;99.90;;;11.29;84.79;99472.47;4879287;29;20543;-67
2021/11/01 05:47:16;;;;;;;15.02;4.82;;;11.30;99.90;;;11.47;85.05;99509.00;4879217;29;20109;-67
2021/11/01 05:49:45;;;;;;;21.45;5.82;;;11.30;99.90;;;11.45;84.81;99505.53;4878939;29;20120;-66
2021/11/01 05:52:21;;;;;;;17.40;5.32;;;11.30;99.90;;;11.46;84.76;99499.31;4881264;29;20100;-67
2021/11/01 05:54:53;;;;;;;19.52;5.82;;;11.30;99.90;;;11.45;84.69;99504.66;4882717;29;20117;-67
2021/11/01 05:57:28;;;;;;;17.85;5.63;;;11.30;99.90;;;11.40;84.70;99498.66;4882996;29;20045;-69
2021/11/01 06:02:59;;;;;;;18.85;5.90;;;11.30;99.90;;;11.33;85.06;99483.84;4882549;29;20053;-67
2021/11/01 06:05:53;;;;;;;13.18;5.57;;;11.20;99.90;;;11.27;85.37;99502.53;4896950;29;20113;-67
2021/11/01 06:08:41;;;;;;;15.40;5.72;;;11.20;99.90;;;11.27;85.47;99482.25;4882187;29;20073;-67
2021/11/01 06:13:57;;;;;;;18.10;5.75;;;11.10;99.90;;;11.20;85.64;99503.66;4882064;29;20065;-67
2021/11/01 06:16:27;;;;;;;15.15;5.15;;;11.00;99.90;;;11.29;85.71;99498.94;4882294;29;20080;-67
2021/11/01 06:18:55;;;;;;;13.80;4.65;;;11.10;99.90;;;11.10;85.42;99495.09;4882002;29;20507;-67
2021/11/01 06:21:25;;;;;;;18.17;5.43;;;11.10;99.90;;;11.28;85.61;99529.00;4882251;29;20398;-67
2021/11/01 06:23:55;;;;;;;16.23;5.60;;;11.10;99.90;;;11.29;85.77;99504.25;4882101;29;20064;-67
2021/11/01 06:26:26;;;;;;;24.45;6.07;;;11.10;99.90;;;11.29;85.67;99506.88;4881786;29;20049;-68
2021/11/01 06:28:58;;;;;;;17.83;6.22;;;11.20;99.90;;;11.30;85.72;99503.34;4881700;29;20438;-67
2021/11/01 06:31:29;;;;;;;14.70;5.28;;;11.10;99.90;;;10.75;85.57;99402.66;4881957;29;20479;-68
2021/11/01 06:34:18;;;;;;;20.67;5.95;;;11.20;99.90;;;11.39;85.31;99524.25;4881936;29;20109;-68
2021/11/01 06:39:53;;;;;;;15.98;5.38;;;11.30;99.90;;;11.50;84.82;99542.44;4881657;29;20109;-68
2021/11/01 06:42:39;;;;;;;19.30;5.78;;;11.40;99.90;;;11.43;84.85;99530.31;4881645;29;20068;-68
2021/11/01 06:45:31;;;;;;;14.18;5.95;;;11.30;99.90;;;11.46;84.37;99530.22;4881241;29;20049;-68
2021/11/01 06:51:04;;;;;;;14.45;5.63;;;11.30;99.90;;;11.37;85.42;99518.13;4881399;29;20121;-67
2021/11/01 06:56:40;;;;;;;17.25;5.93;;;11.20;99.90;;;11.37;85.67;99544.59;4881313;29;20555;-68
2021/11/01 07:16:08;;;;;;;17.60;5.35;;;11.20;99.90;;;11.43;85.28;99547.06;4881056;29;20049;-68
2021/11/01 07:18:43;;;;;;;14.77;5.15;;;11.30;99.90;;;11.45;85.35;99587.59;4880892;29;20597;-66
2021/11/01 07:38:40;;;;;;;8.23;4.40;;;11.40;99.90;;;11.45;83.22;99552.31;4880482;29;20077;-68
2021/11/01 08:20:49;;;;;;;12.23;5.22;;;13.80;99.90;;;13.85;73.31;99591.94;4879968;29;20061;-70
2021/11/01 08:37:27;;;;;;;14.07;4.55;;;14.20;99.90;;;14.42;70.91;99587.91;4860213;29;20072;-68
2021/11/01 08:40:09;;;;;;;11.23;4.18;;;14.30;99.90;;;14.70;70.00;99594.75;4879611;29;20061;-70
2021/11/01 08:43:05;;;;;;;13.38;4.32;;;14.50;99.90;;;14.57;69.97;99602.38;4879840;29;20049;-71
2021/11/01 08:48:37;;;;;;;13.93;4.65;;;14.50;99.90;;;14.54;69.37;99622.94;4879500;29;20101;-68
2021/11/01 08:51:28;;;;;;;13.73;5.15;;;14.40;99.90;;;14.66;68.66;99625.06;4879452;29;20049;-68
2021/11/01 09:08:11;;;;;;;17.27;5.20;;;14.50;99.90;;;15.02;68.57;99621.75;4877240;29;20059;-69
2021/11/01 09:19:20;;;;;;;11.32;4.55;;;14.90;99.90;;;15.14;66.64;99631.88;4879269;29;20041;-68
2021/11/01 09:24:39;;;;;;;12.93;5.10;;;15.00;99.90;;;15.29;67.02;99625.88;4850487;29;20067;-68
2021/11/01 09:27:10;;;;;;;9.45;4.15;;;15.10;99.90;;;15.33;65.18;99611.50;4881014;29;20043;-68
2021/11/01 09:38:11;;;;;;;5.40;3.40;;;15.10;99.90;;;15.44;65.35;99621.75;4882693;29;20057;-68
2021/11/01 09:40:56;;;;;;;6.22;4.15;;;15.20;99.90;;;15.61;64.91;99628.97;4882611;29;20498;-68
2021/11/01 09:43:26;;;;;;;12.40;3.80;;;15.40;99.90;;;15.61;63.96;99621.84;4882523;29;20049;-68
2021/11/01 09:45:57;;;;;;;8.48;3.45;;;15.40;99.90;;;15.16;64.04;99544.78;4882941;29;20108;-68
2021/11/01 09:48:26;;;;;;;6.75;4.00;;;15.40;99.90;;;15.76;63.74;99622.94;4882834;29;20234;-68
2021/11/01 09:50:55;;;;;;;6.55;3.50;;;15.50;99.90;;;15.61;63.73;99618.31;4882406;29;20135;-68
2021/11/01 09:53:28;;;;;;;9.23;3.95;;;15.50;99.90;;;15.64;64.15;99615.53;4882417;29;20053;-68
2021/11/01 09:56:18;;;;;;;8.52;4.38;;;15.50;99.90;;;15.85;63.88;99627.88;4882394;29;20049;-68
2021/11/01 10:01:35;;;;;;;10.95;4.38;;;15.60;99.90;;;15.77;63.55;99620.22;4882404;29;20404;-68
2021/11/01 10:04:04;;;;;;;7.22;3.80;;;15.60;99.90;;;15.65;63.71;99634.09;4881310;29;20118;-68
2021/11/01 10:06:32;;;;;;;9.13;3.90;;;15.50;99.90;;;15.64;64.00;99616.38;4882193;29;20060;-69
2021/11/01 10:09:04;;;;;;;8.68;4.70;;;15.40;99.90;;;15.87;64.45;99620.69;4882096;29;20483;-68
2021/11/01 10:11:39;;;;;;;10.52;4.20;;;15.60;99.90;;;16.05;63.80;99641.16;4882087;29;20044;-68
2021/11/01 10:14:11;;;;;;;10.55;4.55;;;15.80;99.90;;;15.97;63.78;99630.84;4896354;29;20064;-68
2021/11/01 10:19:30;;;;;;;9.48;4.13;;;15.60;99.90;;;15.68;63.28;99611.78;4881837;29;20078;-68
2021/11/01 10:22:02;;;;;;;8.38;4.07;;;15.50;99.90;;;15.72;63.98;99634.69;4881833;29;20150;-68
2021/11/01 10:24:38;;;;;;;7.95;4.20;;;15.50;99.90;;;15.69;63.23;99625.03;4882405;29;20072;-68
2021/11/01 10:27:09;;;;;;;6.18;4.18;;;15.50;99.90;;;15.65;63.51;99633.22;4881797;29;20049;-68
2021/11/01 10:29:54;;;;;;;8.68;4.53;;;15.50;99.90;;;15.75;64.45;99639.88;4882366;29;20446;-68
2021/11/01 10:32:36;;;;;;;9.00;3.63;;;15.50;99.90;;;15.71;63.85;99648.97;4881713;29;20052;-68
2021/11/01 10:35:16;;;;;;;6.55;4.15;;;15.50;99.90;;;15.71;64.00;99627.63;4881972;29;20431;-68
2021/11/01 10:38:11;;;;;;;6.90;3.90;;;15.50;99.90;;;15.69;64.90;99659.69;4881080;29;20109;-68
2021/11/01 10:40:47;;;;;;;6.65;4.00;;;15.50;99.90;;;15.61;64.64;99645.84;4881557;29;20110;-68
2021/11/01 10:43:46;;;;;;;8.55;5.18;;;15.50;99.90;;;15.65;64.73;99659.88;4881520;29;20076;-68
2021/11/01 11:11:58;;;;;;;13.80;4.60;;;15.90;99.90;;;16.21;62.99;99658.19;4881030;29;20053;-68
2021/11/01 11:14:31;;;;;;;6.88;4.35;;;16.00;99.90;;;16.33;62.27;99654.94;4881012;29;20120;-68
2021/11/01 11:23:35;;;;;;;9.68;4.45;;;16.20;99.90;;;16.20;62.29;99646.63;4866717;29;20407;-68
2021/11/01 11:26:12;;;;;;;11.20;4.10;;;16.10;99.90;;;16.12;63.45;99639.94;4880824;29;20630;-68
2021/11/01 11:29:25;;;;;;;7.95;4.32;;;15.90;99.90;;;16.10;62.96;99645.31;4880823;29;20073;-68
2021/11/01 11:49:15;;;;;;;10.75;4.13;;;15.90;99.90;;;16.33;61.88;99654.06;4880100;29;20061;-68
2021/11/01 11:51:57;;;;;;;8.20;3.50;;;16.10;99.90;;;16.34;61.83;99645.16;4880203;29;20049;-68
2021/11/01 11:54:33;;;;;;;7.47;3.75;;;16.10;99.90;;;16.21;61.57;99648.38;4880498;29;20131;-68
2021/11/01 11:57:04;;;;;;;7.03;4.18;;;16.00;99.90;;;16.24;61.88;99642.00;4880113;29;20061;-68
2021/11/01 11:59:36;;;;;;;6.80;3.92;;;16.00;99.90;;;15.97;61.47;99633.50;4880252;29;20045;-68
2021/11/01 12:02:10;;;;;;;6.93;3.70;;;15.90;99.90;;;16.22;61.25;99646.56;4880189;29;20498;-69
2021/11/01 12:04:44;;;;;;;7.15;3.78;;;16.00;99.90;;;16.44;61.10;99659.75;4880507;29;20045;-68
2021/11/01 12:07:16;;;;;;;9.50;3.92;;;16.20;99.90;;;16.13;60.79;99582.97;4880643;29;20045;-68
2021/11/01 12:09:55;;;;;;;6.72;3.80;;;16.30;99.90;;;16.51;60.92;99663.91;4880092;29;20101;-68
2021/11/01 12:12:49;;;;;;;6.55;3.83;;;16.30;99.90;;;16.26;60.01;99621.47;4879897;29;20049;-68
2021/11/01 12:18:03;;;;;;;6.43;3.95;;;16.10;99.90;;;16.24;59.91;99650.03;4879949;29;20041;-68
2021/11/01 12:20:32;;;;;;;5.88;4.10;;;16.00;99.90;;;16.28;60.51;99648.94;4879867;29;20037;-68
2021/11/01 12:23:06;;;;;;;11.15;3.90;;;16.00;99.90;;;16.20;60.23;99662.66;4879670;29;20057;-68
2021/11/01 12:25:41;;;;;;;7.60;3.67;;;16.00;99.90;;;16.17;59.74;99648.59;4879662;29;20113;-68
2021/11/01 12:28:18;;;;;;;7.70;3.90;;;16.00;99.90;;;16.28;60.88;99641.81;4878936;29;20059;-69
2021/11/01 12:30:59;;;;;;;9.50;4.00;;;16.00;99.90;;;16.25;60.53;99625.97;4879653;29;20049;-68
2021/11/01 12:33:30;;;;;;;5.18;3.75;;;16.10;99.90;;;16.48;61.00;99646.25;4879844;29;20135;-68
2021/11/01 12:36:03;;;;;;;7.70;4.47;;;16.20;99.90;;;16.61;61.34;99634.03;4879960;29;20056;-68
2021/11/01 12:38:42;;;;;;;6.68;3.60;;;16.40;99.90;;;16.54;60.02;99659.28;4879640;29;20104;-68
2021/11/01 12:41:23;;;;;;;9.43;3.78;;;16.30;99.90;;;16.54;60.28;99650.41;4879689;29;20045;-69
2021/11/01 12:56:56;;;;;;;7.70;4.05;;;16.10;99.90;;;15.49;61.35;99589.53;4879440;29;20045;-69
2021/11/01 12:58:52;;;;;;;8.55;4.55;;;15.60;99.90;;;15.70;63.22;99636.59;4879652;29;20045;-69
2021/11/01 13:01:21;;;;;;;6.50;4.88;;;15.50;99.90;;;15.58;64.06;99645.97;4878913;29;20414;-68
2021/11/01 13:03:52;;;;;;;8.43;4.90;;;15.40;99.90;;;15.56;64.21;99670.97;4879388;29;20414;-68
2021/11/01 13:06:41;;;;;;;8.60;4.25;;;15.40;99.90;;;15.30;64.39;99632.97;4879770;29;20049;-68
2021/11/01 13:09:14;;;;;;;11.93;4.70;;;15.10;99.90;;;15.09;65.02;99620.56;4879267;29;20083;-68
2021/11/01 13:11:59;;;;;;;9.93;4.85;;;15.00;99.90;;;15.34;65.88;99655.00;4879261;29;20049;-68
2021/11/01 13:14:43;;;;;;;7.03;4.65;;;15.10;99.90;;;15.09;66.18;99599.25;4877878;29;20065;-69
2021/11/01 13:20:04;;;;;;;14.10;4.55;;;15.00;99.90;;;15.30;66.63;99632.09;4878219;29;20452;-68
2021/11/01 13:22:43;;;;;;;8.00;4.82;;;15.00;99.90;;;15.41;66.49;99631.63;4879415;29;20135;-68
2021/11/01 13:25:18;;;;;;;12.52;5.05;;;15.10;99.90;;;15.31;65.52;99623.19;4879677;29;20045;-68
2021/11/01 13:27:58;;;;;;;10.30;4.68;;;15.10;99.90;;;14.69;66.02;99542.47;4879225;29;20049;-68
2021/11/01 13:39:05;;;;;;;10.30;4.88;;;15.10;99.90;;;15.32;64.43;99641.75;4864968;29;20071;-68
2021/11/01 13:41:34;;;;;;;6.43;4.35;;;15.10;99.90;;;15.43;64.95;99646.63;4878993;29;20062;-68
2021/11/01 13:44:12;;;;;;;7.25;4.35;;;15.10;99.90;;;15.50;65.75;99633.94;4878691;29;20069;-68
2021/11/01 13:46:45;;;;;;;7.45;3.67;;;15.20;99.90;;;15.34;63.98;99634.56;4879005;29;20056;-69
2021/11/01 13:49:15;;;;;;;6.22;3.75;;;15.20;99.90;;;15.36;63.96;99632.69;4878958;29;20065;-68
2021/11/01 13:51:50;;;;;;;7.65;3.67;;;15.10;99.90;;;15.10;63.93;99630.28;4879168;29;20128;-68
2021/11/01 13:54:33;;;;;;;8.93;3.70;;;15.00;99.90;;;15.27;63.88;99638.41;4879173;29;20057;-68
2021/11/01 13:57:06;;;;;;;8.35;4.20;;;15.00;99.90;;;15.27;63.57;99617.09;4879429;29;20108;-68
2021/11/01 13:59:45;;;;;;;9.77;3.72;;;15.00;99.90;;;15.18;63.69;99605.97;4878891;29;20060;-68
2021/11/01 14:13:39;;;;;;;6.30;3.85;;;14.70;99.90;;;14.93;65.01;99635.47;4880853;29;20053;-68
2021/11/01 14:19:10;;;;;;;6.57;3.88;;;14.80;99.90;;;15.06;64.83;99630.50;4882033;29;20057;-68
2021/11/01 14:33:38;;;;;;;4.97;3.33;;;14.70;99.90;;;14.66;63.48;99628.63;4882023;29;20132;-68
2021/11/01 15:01:31;;;;;;;6.25;3.63;;;13.50;99.90;;;13.59;66.94;99641.63;4881344;29;20057;-69
2021/11/01 15:13:13;;;;;;;5.65;3.28;;;13.20;99.90;;;13.36;68.89;99660.16;4880951;29;20048;-69
2021/11/01 15:15:57;;;;;;;8.98;3.28;;;13.20;99.90;;;13.37;69.49;99634.47;4881221;29;20057;-68
2021/11/01 15:18:46;;;;;;;8.32;3.50;;;13.10;99.90;;;13.36;70.07;99625.63;4881224;29;20063;-68
2021/11/01 15:21:21;;;;;;;4.63;2.78;;;13.10;99.90;;;13.29;70.56;99625.91;4880971;29;20073;-69
2021/11/01 15:24:12;;;;;;;4.95;3.42;;;13.10;99.90;;;13.35;70.78;99631.00;4880325;29;20060;-69
2021/11/01 15:30:59;;;;;;;5.32;3.42;;;13.20;99.90;;;13.50;70.91;99652.59;4880594;29;20503;-69
2021/11/01 15:35:39;;;;;;;3.85;3.15;;;13.30;99.90;;;13.55;70.68;99634.69;4879856;29;20061;-69
2021/11/01 16:17:17;;;;;;;3.63;2.97;;;12.80;99.90;;;13.04;69.26;99652.44;4880187;29;20053;-68
2021/11/01 16:19:50;;;;;;;4.30;3.25;;;12.80;99.90;;;12.86;69.39;99633.56;4880086;29;20139;-69
2021/11/01 16:22:19;;;;;;;3.53;2.90;;;12.80;99.90;;;12.96;69.56;99650.94;4879754;29;20061;-69
2021/11/01 16:24:49;;;;;;;4.40;2.85;;;12.70;99.90;;;12.93;69.88;99654.53;4880316;29;20051;-68